createdAt,value
2023-02-20T00:00:09.348Z,22.38
2023-02-20T00:01:09.426Z,22.38
2023-02-20T00:02:09.338Z,22.38
2023-02-20T00:03:09.319Z,22.37
2023-02-20T00:04:09.261Z,22.38
2023-02-20T00:05:09.242Z,22.36
2023-02-20T00:06:09.248Z,22.35
2023-02-20T00:07:09.224Z,22.35
2023-02-20T00:08:09.243Z,22.35
2023-02-20T00:09:09.217Z,22.34
2023-02-20T00:10:09.181Z,22.35
2023-02-20T00:11:09.187Z,22.35
2023-02-20T00:12:09.161Z,22.36
2023-02-20T00:13:09.147Z,22.34
2023-02-20T00:14:09.105Z,22.38
2023-02-20T00:15:09.112Z,22.35
2023-02-20T00:16:09.127Z,22.37
2023-02-20T00:17:09.102Z,22.36
2023-02-20T00:18:09.061Z,22.35
2023-02-20T00:19:09.059Z,22.37
2023-02-20T00:20:09.036Z,22.37
2023-02-20T00:21:09.020Z,22.36
2023-02-20T00:22:09.025Z,22.38
2023-02-20T00:23:09.042Z,22.38
2023-02-20T00:24:08.992Z,22.39
2023-02-20T00:25:08.947Z,22.39
2023-02-20T00:26:08.983Z,22.39
2023-02-20T00:27:08.952Z,22.39
2023-02-20T00:28:08.929Z,22.41
2023-02-20T00:29:08.910Z,22.42
2023-02-20T00:30:08.951Z,22.41
2023-02-20T00:31:08.913Z,22.40
2023-02-20T00:32:08.887Z,22.40
2023-02-20T00:33:08.908Z,22.42
2023-02-20T00:34:08.840Z,22.42
2023-02-20T00:35:08.814Z,22.43
2023-02-20T00:36:08.810Z,22.42
2023-02-20T00:37:08.801Z,22.42
2023-02-20T00:38:08.786Z,22.46
2023-02-20T00:39:08.789Z,22.44
2023-02-20T00:40:08.763Z,22.43
2023-02-20T00:41:08.758Z,22.45
2023-02-20T00:42:08.724Z,22.45
2023-02-20T00:43:08.709Z,22.48
2023-02-20T00:44:08.757Z,22.48
2023-02-20T00:45:08.696Z,22.47
2023-02-20T00:46:08.698Z,22.47
2023-02-20T00:47:08.699Z,22.48
2023-02-20T00:48:08.640Z,22.48
2023-02-20T00:49:08.647Z,22.48
2023-02-20T00:50:08.618Z,22.48
2023-02-20T00:51:08.612Z,22.49
2023-02-20T00:52:08.620Z,22.48
2023-02-20T00:53:08.616Z,22.48
2023-02-20T00:54:08.588Z,22.50
2023-02-20T00:55:08.534Z,22.49
2023-02-20T00:56:08.553Z,22.49
2023-02-20T00:57:08.580Z,22.51
2023-02-20T00:58:08.516Z,22.51
2023-02-20T00:59:08.540Z,22.50
2023-02-20T01:00:08.501Z,22.52
2023-02-20T01:01:08.478Z,22.53
2023-02-20T01:02:08.458Z,22.53
2023-02-20T01:03:08.426Z,22.52
2023-02-20T01:04:08.438Z,22.53
2023-02-20T01:05:08.406Z,22.53
2023-02-20T01:06:08.403Z,22.53
2023-02-20T01:07:08.436Z,22.53
2023-02-20T01:08:08.403Z,22.52
2023-02-20T01:09:08.366Z,22.54
2023-02-20T01:10:08.365Z,22.56
2023-02-20T01:11:08.365Z,22.56
2023-02-20T01:12:08.303Z,22.56
2023-02-20T01:13:08.298Z,22.55
2023-02-20T01:14:08.307Z,22.57
2023-02-20T01:15:08.254Z,22.55
2023-02-20T01:16:08.323Z,22.57
2023-02-20T01:17:08.291Z,22.58
2023-02-20T01:18:08.221Z,22.58
2023-02-20T01:19:08.246Z,22.58
2023-02-20T01:20:08.231Z,22.58
2023-02-20T01:26:12.223Z,22.58
2023-02-20T07:26:56.248Z,20.66
2023-02-20T07:28:02.616Z,20.62
2023-02-20T07:32:03.364Z,20.77
2023-02-20T08:11:55.134Z,21.79
2023-02-20T10:07:51.800Z,21.53
2023-02-20T10:08:50.783Z,21.68
2023-02-20T10:09:51.435Z,21.67
2023-02-20T10:10:50.684Z,21.70
2023-02-20T10:11:50.690Z,21.66
2023-02-20T10:12:50.672Z,21.63
2023-02-20T10:13:50.788Z,21.54
2023-02-20T10:14:50.588Z,21.50
2023-02-20T10:15:51.365Z,21.55
2023-02-20T10:16:50.533Z,21.42
2023-02-20T10:17:50.646Z,21.40
2023-02-20T10:18:51.534Z,21.34
2023-02-20T10:19:50.672Z,21.43
2023-02-20T10:20:50.540Z,21.43
2023-02-20T10:21:50.525Z,21.27
2023-02-20T10:22:50.452Z,21.22
2023-02-20T10:24:03.730Z,21.22
2023-02-20T10:24:51.433Z,21.36
2023-02-20T10:25:51.576Z,21.40
2023-02-20T10:26:50.868Z,21.39
2023-02-20T10:27:50.386Z,21.39
2023-02-20T10:28:50.363Z,21.50
2023-02-20T10:29:50.902Z,21.42
2023-02-20T10:30:50.377Z,21.42
2023-02-20T10:31:50.443Z,21.44
2023-02-20T10:32:50.260Z,21.48
2023-02-20T10:33:50.235Z,21.44
2023-02-20T10:34:50.188Z,21.42
2023-02-20T10:35:50.205Z,21.42
2023-02-20T10:36:50.075Z,21.47
2023-02-20T10:37:50.090Z,21.36
2023-02-20T10:38:50.141Z,21.38
2023-02-20T10:39:50.136Z,21.66
2023-02-20T10:40:50.095Z,21.77
2023-02-20T10:41:50.996Z,21.73
2023-02-20T10:42:50.937Z,21.76
2023-02-20T10:43:49.932Z,21.78
2023-02-20T10:44:52.335Z,21.61
2023-02-20T10:45:49.944Z,21.51
2023-02-20T10:46:50.013Z,21.57
2023-02-20T10:47:49.882Z,21.53
2023-02-20T10:48:49.848Z,21.45
2023-02-20T10:49:49.752Z,21.36
2023-02-20T10:50:49.757Z,21.29
2023-02-20T10:51:49.702Z,21.24
2023-02-20T10:52:49.658Z,21.75
2023-02-20T10:53:49.714Z,21.62
2023-02-20T10:54:49.581Z,21.68
2023-02-20T10:55:49.559Z,21.66
2023-02-20T10:56:49.486Z,21.57
2023-02-20T10:57:49.510Z,21.99
2023-02-20T10:58:49.868Z,21.74
2023-02-20T10:59:50.842Z,21.58
2023-02-20T11:59:50.916Z,24.49
2023-02-20T13:30:41.060Z,24.35
2023-02-20T13:31:40.926Z,24.35
2023-02-20T13:32:40.838Z,24.33
2023-02-20T13:33:40.725Z,24.32
2023-02-20T13:34:40.685Z,24.35
2023-02-20T13:35:40.763Z,24.33
2023-02-20T13:36:40.607Z,24.33
2023-02-20T13:37:40.505Z,24.31
2023-02-20T13:38:40.432Z,24.31
2023-02-20T13:39:40.430Z,24.31
2023-02-20T13:40:40.330Z,24.30
2023-02-20T13:41:40.455Z,24.25
2023-02-20T13:42:40.233Z,24.26
2023-02-20T13:43:40.370Z,24.24
2023-02-20T13:44:40.099Z,24.23
2023-02-20T13:45:40.077Z,24.23
2023-02-20T13:46:40.948Z,24.21
2023-02-20T13:47:39.932Z,24.19
2023-02-20T13:48:39.955Z,24.17
2023-02-20T13:49:39.884Z,24.19
2023-02-20T13:50:39.854Z,24.19
2023-02-20T13:51:39.938Z,24.15
2023-02-20T13:52:39.800Z,24.16
2023-02-20T13:53:40.495Z,24.15
2023-02-20T13:54:39.605Z,24.14
2023-02-20T13:55:39.468Z,24.14
2023-02-20T13:56:39.510Z,24.12
2023-02-20T13:57:39.467Z,24.12
2023-02-20T13:58:39.365Z,24.10
2023-02-20T14:07:39.562Z,23.99
2023-02-20T16:04:32.297Z,23.48
2023-02-20T16:20:31.448Z,23.38
2023-02-20T16:47:29.939Z,23.30
2023-02-20T16:55:29.522Z,23.27
2023-02-20T16:56:29.506Z,23.25
2023-02-20T16:57:29.415Z,23.27
2023-02-20T16:58:29.351Z,23.24
2023-02-20T17:10:28.734Z,23.22
2023-02-20T17:19:28.277Z,23.20
2023-02-20T17:23:28.021Z,23.18
2023-02-20T17:24:27.967Z,23.18
2023-02-20T17:25:27.935Z,23.20
2023-02-20T17:26:27.873Z,23.20
2023-02-20T17:27:27.871Z,23.19
2023-02-20T17:28:27.767Z,23.21
2023-02-20T17:29:27.714Z,23.21
2023-02-20T17:30:27.800Z,23.21
2023-02-20T17:31:27.822Z,23.22
2023-02-20T17:32:27.586Z,23.22
2023-02-20T17:33:27.540Z,23.22
2023-02-20T17:34:27.448Z,23.24
2023-02-20T17:35:27.402Z,23.21
2023-02-20T17:36:27.377Z,23.23
2023-02-20T17:37:27.317Z,23.22
2023-02-20T17:38:27.250Z,23.21
2023-02-20T17:39:27.211Z,23.22
2023-02-20T17:40:27.265Z,23.21
2023-02-20T17:41:27.116Z,23.23
2023-02-20T17:42:27.078Z,23.24
2023-02-20T17:43:27.059Z,23.23
2023-02-20T17:44:27.042Z,23.24
2023-02-20T17:45:26.920Z,23.22
2023-02-20T17:46:26.902Z,23.23
2023-02-20T17:47:27.010Z,23.22
2023-02-20T17:48:26.780Z,23.20
2023-02-20T17:49:26.822Z,23.22
2023-02-20T17:50:26.692Z,23.22
2023-02-20T17:51:26.615Z,23.22
2023-02-20T17:52:26.649Z,23.21
2023-02-20T17:53:26.533Z,23.23
2023-02-20T17:54:26.477Z,23.23
2023-02-20T17:55:26.472Z,23.24
2023-02-20T17:56:26.383Z,23.23
2023-02-20T17:57:26.463Z,23.23
2023-02-20T17:58:26.308Z,23.23
2023-02-20T17:59:26.245Z,23.22
2023-02-20T18:00:26.199Z,23.21
2023-02-20T18:01:26.145Z,23.24
2023-02-20T18:03:26.088Z,23.23
2023-02-20T18:04:26.011Z,23.22
2023-02-20T18:05:25.955Z,23.23
2023-02-20T18:06:25.923Z,23.24
2023-02-20T18:07:25.879Z,23.23
2023-02-20T18:08:25.855Z,23.25
2023-02-20T18:09:25.786Z,23.23
2023-02-20T18:10:25.717Z,23.23
2023-02-20T18:11:25.680Z,23.24
2023-02-20T18:12:25.651Z,23.23
2023-02-20T18:13:25.556Z,23.24
2023-02-20T18:14:25.554Z,23.22
2023-02-20T18:15:25.481Z,23.20
2023-02-20T18:16:25.441Z,23.23
2023-02-20T18:17:25.420Z,23.22
2023-02-20T18:18:25.300Z,23.22
2023-02-20T18:19:25.255Z,23.23
2023-02-20T18:20:25.236Z,23.25
2023-02-20T18:21:25.146Z,23.22
2023-02-20T18:24:24.988Z,23.22
2023-02-20T18:25:38.099Z,23.22
2023-02-20T18:26:24.936Z,23.24
2023-02-20T18:28:24.770Z,23.22
2023-02-20T18:29:24.759Z,23.23
2023-02-20T18:30:24.692Z,23.22
2023-02-20T18:31:24.627Z,23.22
2023-02-20T18:32:24.739Z,23.21
2023-02-20T18:33:24.503Z,23.22
2023-02-20T18:34:24.502Z,23.23
2023-02-20T18:35:24.409Z,23.21
2023-02-20T18:36:24.673Z,23.22
2023-02-20T18:37:24.347Z,23.23
2023-02-20T18:38:24.263Z,23.24
2023-02-20T18:39:24.193Z,23.22
2023-02-20T18:40:24.245Z,23.23
2023-02-20T18:41:25.046Z,23.23
2023-02-20T18:42:24.069Z,23.23
2023-02-20T18:43:24.088Z,23.22
2023-02-20T18:44:23.930Z,23.23
2023-02-20T18:45:23.890Z,23.22
2023-02-20T18:46:23.896Z,23.21
2023-02-20T18:47:23.826Z,23.22
2023-02-20T18:48:24.529Z,23.21
2023-02-20T18:49:23.714Z,23.21
2023-02-20T18:50:23.631Z,23.20
2023-02-20T18:51:25.232Z,23.22
2023-02-20T18:52:23.579Z,23.22
2023-02-20T18:53:23.544Z,23.24
2023-02-20T18:54:23.431Z,23.20
2023-02-20T18:55:23.381Z,23.23
2023-02-20T18:56:23.320Z,23.22
2023-02-20T18:57:23.373Z,23.22
2023-02-20T18:58:23.274Z,23.21
2023-02-20T18:59:23.179Z,23.21
2023-02-20T19:00:23.141Z,23.22
2023-02-20T19:01:23.219Z,23.22
2023-02-20T19:02:23.045Z,23.21
2023-02-20T19:03:23.033Z,23.21
2023-02-20T19:04:22.926Z,23.22
2023-02-20T19:05:22.883Z,23.21
2023-02-20T19:06:22.858Z,23.22
2023-02-20T19:07:22.800Z,23.22
2023-02-20T19:08:23.330Z,23.20
2023-02-20T19:09:22.665Z,23.22
2023-02-20T19:10:22.622Z,23.22
2023-02-20T19:11:22.575Z,23.22
2023-02-20T19:12:22.525Z,23.20
2023-02-20T19:13:22.496Z,23.20
2023-02-20T19:14:22.435Z,23.20
2023-02-20T19:15:22.391Z,23.18
2023-02-20T19:16:22.443Z,23.20
2023-02-20T19:17:22.306Z,23.19
2023-02-20T19:18:22.228Z,23.20
2023-02-20T19:19:24.259Z,23.21
2023-02-20T19:20:24.515Z,23.20
2023-02-20T19:21:22.049Z,23.21
2023-02-20T19:22:22.047Z,23.22
2023-02-20T19:23:21.969Z,23.21
2023-02-20T19:24:21.898Z,23.21
2023-02-20T19:25:21.892Z,23.21
2023-02-20T19:26:21.802Z,23.21
2023-02-20T19:27:21.756Z,23.21
2023-02-20T19:28:21.722Z,23.20
2023-02-20T19:29:22.106Z,23.20
2023-02-20T19:30:21.647Z,23.21
2023-02-20T19:31:21.573Z,23.20
2023-02-20T19:32:21.605Z,23.20
2023-02-20T19:33:21.542Z,23.19
2023-02-20T19:34:21.432Z,23.19
2023-02-20T19:35:21.362Z,23.20
2023-02-20T19:36:21.353Z,23.18
2023-02-20T19:37:22.043Z,23.18
2023-02-20T19:38:21.227Z,23.19
2023-02-20T19:39:21.157Z,23.18
2023-02-20T19:40:21.092Z,23.19
2023-02-20T19:41:21.043Z,23.19
2023-02-20T19:42:21.016Z,23.19
2023-02-20T19:43:20.953Z,23.17
2023-02-20T19:44:20.921Z,23.17
2023-02-20T19:45:20.844Z,23.17
2023-02-20T19:46:20.807Z,23.17
2023-02-20T19:47:20.739Z,23.18
2023-02-20T19:48:20.685Z,23.18
2023-02-20T19:49:20.711Z,23.18
2023-02-20T19:50:20.576Z,23.19
2023-02-20T19:51:20.594Z,23.18
2023-02-20T19:52:20.539Z,23.18
2023-02-20T19:53:20.443Z,23.18
2023-02-20T19:54:20.418Z,23.18
2023-02-20T19:55:20.343Z,23.17
2023-02-20T19:56:20.327Z,23.17
2023-02-20T19:57:20.243Z,23.17
2023-02-20T19:58:20.178Z,23.19
2023-02-20T19:59:20.149Z,23.18
2023-02-20T20:00:20.104Z,23.18
2023-02-20T20:01:20.178Z,23.18
2023-02-20T20:02:19.987Z,23.17
2023-02-20T20:03:19.960Z,23.15
2023-02-20T20:04:19.936Z,23.16
2023-02-20T20:05:19.827Z,23.15
2023-02-20T20:06:19.799Z,23.16
2023-02-20T20:07:19.839Z,23.15
2023-02-20T20:08:19.677Z,23.15
2023-02-20T20:09:30.282Z,23.17
2023-02-20T20:10:20.590Z,23.17
2023-02-20T20:11:19.565Z,23.17
2023-02-20T20:12:19.483Z,23.18
2023-02-20T20:13:19.429Z,23.16
2023-02-20T20:14:19.367Z,23.16
2023-02-20T20:15:19.603Z,23.16
2023-02-20T20:16:20.117Z,23.15
2023-02-20T20:17:19.224Z,23.15
2023-02-20T20:18:19.173Z,23.15
2023-02-20T20:19:19.100Z,23.13
2023-02-20T20:20:19.069Z,23.14
2023-02-20T20:21:19.018Z,23.14
2023-02-20T20:22:18.933Z,23.16
2023-02-20T20:23:18.888Z,23.14
2023-02-20T20:24:18.912Z,23.14
2023-02-20T20:25:18.767Z,23.14
2023-02-20T20:26:18.721Z,23.12
2023-02-20T20:27:18.658Z,23.15
2023-02-20T20:28:18.619Z,23.12
2023-02-20T20:29:18.556Z,23.13
2023-02-20T20:30:18.643Z,23.11
2023-02-20T20:31:18.490Z,23.13
2023-02-20T20:32:18.485Z,23.12
2023-02-20T20:33:18.835Z,23.14
2023-02-20T20:34:18.336Z,23.14
2023-02-20T20:35:18.275Z,23.13
2023-02-20T20:36:18.264Z,23.13
2023-02-20T20:37:18.141Z,23.11
2023-02-20T20:38:18.110Z,23.12
2023-02-20T20:39:19.062Z,23.12
2023-02-20T20:40:18.018Z,23.10
2023-02-20T20:41:17.934Z,23.12
2023-02-20T20:42:17.964Z,23.12
2023-02-20T20:43:17.814Z,23.11
2023-02-20T20:44:17.793Z,23.10
2023-02-20T20:45:17.715Z,23.10
2023-02-20T20:46:17.724Z,23.11
2023-02-20T20:47:17.603Z,23.11
2023-02-20T20:48:17.545Z,23.11
2023-02-20T20:49:17.539Z,23.10
2023-02-20T20:50:17.450Z,23.10
2023-02-20T20:51:17.397Z,23.11
2023-02-20T20:52:17.311Z,23.12
2023-02-20T20:53:17.275Z,23.10
2023-02-20T20:54:17.210Z,23.12
2023-02-20T20:55:17.152Z,23.10
2023-02-20T20:56:17.143Z,23.12
2023-02-20T20:57:17.039Z,23.11
2023-02-20T20:58:16.977Z,23.11
2023-02-20T20:59:16.915Z,23.11
2023-02-20T21:00:16.903Z,23.10
2023-02-20T21:01:17.056Z,23.12
2023-02-20T21:02:16.779Z,23.10
2023-02-20T21:03:16.782Z,23.10
2023-02-20T21:04:16.660Z,23.12
2023-02-20T21:05:16.692Z,23.10
2023-02-20T21:06:16.600Z,23.09
2023-02-20T21:07:16.484Z,23.10
2023-02-20T21:08:16.467Z,23.10
2023-02-20T21:09:16.387Z,23.11
2023-02-20T21:10:16.426Z,23.11
2023-02-20T21:11:17.009Z,23.10
2023-02-20T21:12:16.250Z,23.11
2023-02-20T21:13:16.238Z,23.11
2023-02-20T21:14:16.150Z,23.08
2023-02-20T21:15:18.096Z,23.09
2023-02-20T21:16:16.042Z,23.09
2023-02-20T21:17:16.002Z,23.09
2023-02-20T21:18:16.010Z,23.08
2023-02-20T21:19:15.923Z,23.05
2023-02-20T21:20:15.829Z,23.04
2023-02-20T21:21:16.598Z,23.06
2023-02-20T21:22:15.777Z,23.06
2023-02-20T21:23:15.687Z,23.02
2023-02-20T21:24:16.711Z,23.00
2023-02-20T21:25:16.673Z,23.01
2023-02-20T21:26:15.613Z,23.01
2023-02-20T21:27:15.495Z,23.00
2023-02-20T21:28:15.444Z,22.98
2023-02-20T21:29:15.439Z,22.98
2023-02-20T21:30:15.410Z,22.98
2023-02-20T21:31:15.707Z,22.97
2023-02-20T21:32:15.350Z,22.94
2023-02-20T21:33:15.194Z,22.95
2023-02-20T21:34:15.168Z,22.93
2023-02-20T21:35:15.134Z,22.95
2023-02-20T21:36:15.148Z,22.92
2023-02-20T21:37:15.013Z,22.89
2023-02-20T21:38:14.972Z,22.90
2023-02-20T21:39:14.911Z,22.88
2023-02-20T21:40:15.591Z,22.89
2023-02-20T21:41:15.047Z,22.86
2023-02-20T21:42:14.765Z,22.89
2023-02-20T21:43:14.705Z,22.89
2023-02-20T21:44:14.698Z,22.87
2023-02-20T21:45:15.609Z,22.89
2023-02-20T21:46:14.620Z,22.88
2023-02-20T21:47:14.491Z,22.88
2023-02-20T21:48:14.508Z,22.87
2023-02-20T21:49:14.398Z,22.88
2023-02-20T21:50:14.377Z,22.87
2023-02-20T21:51:14.585Z,22.88
2023-02-20T21:52:14.272Z,22.87
2023-02-20T21:53:14.190Z,22.87
2023-02-20T21:54:14.169Z,22.87
2023-02-20T21:55:14.124Z,22.86
2023-02-20T21:56:14.145Z,22.86
2023-02-20T21:57:13.991Z,22.85
2023-02-20T21:58:13.965Z,22.86
2023-02-20T21:59:14.667Z,22.86
2023-02-20T22:00:13.855Z,22.85
2023-02-20T22:01:14.063Z,22.87
2023-02-20T22:02:13.789Z,22.86
2023-02-20T22:03:13.761Z,22.85
2023-02-20T22:04:13.673Z,22.85
2023-02-20T22:05:13.643Z,22.87
2023-02-20T22:06:13.563Z,22.85
2023-02-20T22:07:13.529Z,22.86
2023-02-20T22:08:13.465Z,22.87
2023-02-20T22:09:13.440Z,22.87
2023-02-20T22:10:13.406Z,22.87
2023-02-20T22:11:13.640Z,22.85
2023-02-20T22:12:13.320Z,22.86
2023-02-20T22:13:13.225Z,22.86
2023-02-20T22:14:13.168Z,22.87
2023-02-20T22:15:13.156Z,22.86
2023-02-20T22:16:13.124Z,22.85
2023-02-20T22:17:13.042Z,22.86
2023-02-20T22:18:13.063Z,22.86
2023-02-20T22:19:12.932Z,22.87
2023-02-20T22:20:15.371Z,22.86
2023-02-20T22:21:13.201Z,22.85
2023-02-20T22:22:12.968Z,22.85
2023-02-20T22:23:12.891Z,22.87
2023-02-20T22:24:12.858Z,22.86
2023-02-20T22:25:12.839Z,22.87
2023-02-20T22:26:12.730Z,22.84
2023-02-20T22:27:12.716Z,22.87
2023-02-20T22:28:12.644Z,22.86
2023-02-20T22:29:12.590Z,22.86
2023-02-20T22:30:12.619Z,22.86
2023-02-20T22:31:12.890Z,22.85
2023-02-20T22:32:12.610Z,22.85
2023-02-20T22:33:12.380Z,22.85
2023-02-20T22:34:12.333Z,22.83
2023-02-20T22:35:12.611Z,22.86
2023-02-20T22:36:12.236Z,22.85
2023-02-20T22:37:12.194Z,22.85
2023-02-20T22:38:12.179Z,22.85
2023-02-20T22:39:12.624Z,22.88
2023-02-20T22:40:12.018Z,22.85
2023-02-20T22:41:12.136Z,22.85
2023-02-20T22:42:12.017Z,22.85
2023-02-20T22:43:11.914Z,22.85
2023-02-20T22:44:11.828Z,22.85
2023-02-20T22:45:11.826Z,22.85
2023-02-20T22:46:12.671Z,22.85
2023-02-20T22:47:11.680Z,22.85
2023-02-20T22:48:11.622Z,22.85
2023-02-20T22:49:11.588Z,22.85
2023-02-20T22:50:11.523Z,22.84
2023-02-20T22:51:11.614Z,22.85
2023-02-20T22:52:11.552Z,22.86
2023-02-20T22:53:11.410Z,22.85
2023-02-20T22:54:11.411Z,22.86
2023-02-20T22:55:11.354Z,22.85
2023-02-20T22:56:11.250Z,22.86
2023-02-20T22:57:11.277Z,22.84
2023-02-20T22:58:11.160Z,22.84
2023-02-20T22:59:11.145Z,22.85
2023-02-20T23:00:11.084Z,22.84
2023-02-20T23:01:11.196Z,22.84
2023-02-20T23:02:11.044Z,22.84
2023-02-20T23:03:10.931Z,22.84
2023-02-20T23:04:10.893Z,22.83
2023-02-20T23:05:10.836Z,22.85
2023-02-20T23:06:17.985Z,22.85
2023-02-20T23:07:11.742Z,22.87
2023-02-20T23:08:10.689Z,22.84
2023-02-20T23:09:10.631Z,22.83
2023-02-20T23:10:10.645Z,22.82
2023-02-20T23:11:10.540Z,22.83
2023-02-20T23:12:10.486Z,22.84
2023-02-20T23:13:10.488Z,22.84
2023-02-20T23:14:10.386Z,22.85
2023-02-20T23:15:10.355Z,22.84
2023-02-20T23:16:10.400Z,22.84
2023-02-20T23:17:11.145Z,22.84
2023-02-20T23:18:10.206Z,22.84
2023-02-20T23:19:10.177Z,22.83
2023-02-20T23:20:10.120Z,22.85
2023-02-20T23:21:10.656Z,22.85
2023-02-20T23:22:10.055Z,22.83
2023-02-20T23:23:09.994Z,22.83
2023-02-20T23:24:09.930Z,22.84
2023-02-20T23:25:09.874Z,22.82
2023-02-20T23:26:09.841Z,22.83
2023-02-20T23:27:09.794Z,22.82
2023-02-20T23:28:09.761Z,22.83
2023-02-20T23:29:09.702Z,22.83
2023-02-20T23:30:09.719Z,22.82
2023-02-20T23:31:09.612Z,22.83
2023-02-20T23:32:09.702Z,22.83
2023-02-20T23:33:09.501Z,22.80
2023-02-20T23:34:09.445Z,22.82
2023-02-20T23:35:09.396Z,22.81
2023-02-20T23:36:09.373Z,22.82
2023-02-20T23:37:09.292Z,22.84
2023-02-20T23:38:09.255Z,22.83
2023-02-20T23:39:09.172Z,22.80
2023-02-20T23:40:09.124Z,22.80
2023-02-20T23:41:09.094Z,22.81
2023-02-20T23:42:09.054Z,22.81
2023-02-20T23:43:08.991Z,22.81
2023-02-20T23:44:08.949Z,22.82
2023-02-20T23:45:08.905Z,22.81
2023-02-20T23:46:08.877Z,22.82
2023-02-20T23:47:08.803Z,22.83
2023-02-20T23:48:08.796Z,22.82
2023-02-20T23:49:08.682Z,22.81
2023-02-20T23:50:08.626Z,22.82
2023-02-20T23:51:08.633Z,22.81
2023-02-20T23:52:16.387Z,22.81
2023-02-20T23:53:09.966Z,22.81
2023-02-20T23:54:08.436Z,22.83
2023-02-20T23:55:08.378Z,22.81
2023-02-20T23:56:08.355Z,22.81
2023-02-20T23:57:08.309Z,22.81
2023-02-20T23:58:08.342Z,22.80
2023-02-20T23:59:08.242Z,22.80
